Time;durP1;ratioP1;P1;durP2;ratioP2;P2;SDS_P1;SDS_P2;PMS_P1;PMS_P2;Temp;Humidity;BMP_temperature;BMP_pressure;BME280_temperature;BME280_humidity;BME280_pressure;Samples;Min_cycle;Max_cycle;Signal;HPM_P1;HPM_P2
2023/07/08 00:02:12;;;;;;;3.85;2.55;;;;;;;22.01;60.03;101688.63;4910493;29;20067;-68
2023/07/08 00:04:40;;;;;;;6.07;2.78;;;;;;;22.00;60.12;101691.50;4905843;29;20063;-67
2023/07/08 00:07:11;;;;;;;4.80;3.03;;;;;;;21.99;60.08;101684.50;4912019;29;20048;-68
2023/07/08 00:09:38;;;;;;;5.75;2.63;;;;;;;21.96;60.80;101692.94;4905717;28;20860;-68
2023/07/08 00:12:10;;;;;;;4.78;2.67;;;;;;;21.94;60.48;101686.97;4905788;29;20075;-69
2023/07/08 00:14:36;;;;;;;4.30;2.92;;;;;;;21.88;61.03;101689.41;4905947;29;20094;-68
2023/07/08 00:17:04;;;;;;;7.82;2.78;;;;;;;21.85;60.88;101675.63;4904531;29;20086;-68
2023/07/08 00:19:31;;;;;;;8.65;3.08;;;;;;;21.80;60.74;101678.09;4908047;29;20063;-70
2023/07/08 00:21:57;;;;;;;6.93;2.70;;;;;;;21.79;61.25;101679.09;4902185;29;20052;-68
2023/07/08 00:24:24;;;;;;;5.65;2.60;;;;;;;21.79;60.39;101671.91;4911422;29;20090;-67
2023/07/08 00:26:50;;;;;;;4.57;2.60;;;;;;;21.72;61.23;101663.88;4896249;29;20048;-68
2023/07/08 00:29:17;;;;;;;5.93;2.85;;;;;;;21.72;61.39;101669.22;4904371;29;20060;-68
2023/07/08 00:31:43;;;;;;;6.07;2.65;;;;;;;21.69;62.58;101674.94;4909837;29;20048;-67
2023/07/08 00:34:10;;;;;;;4.10;2.72;;;;;;;21.67;62.14;101676.19;4904868;29;20091;-68
2023/07/08 00:36:36;;;;;;;6.20;2.60;;;;;;;21.64;62.38;101663.22;4910093;29;20084;-68
2023/07/08 00:39:03;;;;;;;4.88;2.65;;;;;;;21.61;62.57;101661.78;4898794;29;20048;-68
2023/07/08 00:41:34;;;;;;;4.15;2.60;;;;;;;21.61;63.15;101658.28;4905047;29;20056;-71
2023/07/08 00:44:01;;;;;;;3.08;2.70;;;;;;;21.60;63.25;101653.97;4904092;29;20064;-68
2023/07/08 00:46:29;;;;;;;3.57;2.67;;;;;;;21.54;63.27;101655.59;4905971;29;20418;-68
2023/07/08 00:49:28;;;;;;;6.72;2.88;;;;;;;21.46;64.52;101655.75;4909834;29;20099;-68
2023/07/08 00:51:55;;;;;;;5.35;3.05;;;;;;;21.41;63.37;101651.00;4909690;29;20083;-67
2023/07/08 00:54:21;;;;;;;4.20;2.50;;;;;;;21.37;64.76;101646.25;4909661;29;20123;-70
2023/07/08 00:57:01;;;;;;;6.47;3.03;;;;;;;21.35;65.04;101650.97;4900795;29;20052;-68
2023/07/08 00:59:33;;;;;;;7.03;2.88;;;;;;;21.32;64.91;101654.84;4912098;29;20044;-70
2023/07/08 01:02:04;;;;;;;4.40;2.42;;;;;;;21.29;63.88;101652.59;4900046;29;20284;-68
2023/07/08 01:04:49;;;;;;;7.32;3.17;;;;;;;21.24;64.49;101653.16;4913956;29;20126;-67
2023/07/08 01:07:21;;;;;;;5.32;2.50;;;;;;;21.26;64.77;101644.97;4899195;29;20048;-72
2023/07/08 01:09:53;;;;;;;5.43;2.90;;;;;;;21.24;64.43;101649.66;4911211;29;22068;-70
2023/07/08 01:12:27;;;;;;;4.15;2.60;;;;;;;21.23;64.11;101648.00;4904243;29;20612;-68
2023/07/08 01:14:55;;;;;;;4.18;2.78;;;;;;;21.18;64.94;101645.13;4906639;29;20568;-67
2023/07/08 01:17:22;;;;;;;4.57;2.90;;;;;;;21.13;64.72;101641.22;4914208;29;20111;-71
2023/07/08 01:19:50;;;;;;;3.97;2.70;;;;;;;21.08;65.23;101653.47;4903105;29;21002;-68
2023/07/08 01:22:17;;;;;;;4.13;2.70;;;;;;;21.06;65.27;101647.53;4908467;29;20044;-66
2023/07/08 01:24:45;;;;;;;3.92;2.42;;;;;;;21.07;64.56;101638.47;4906419;29;20497;-67
2023/07/08 01:27:16;;;;;;;6.10;2.50;;;;;;;21.05;64.97;101640.53;4913588;29;20056;-68
2023/07/08 01:29:43;;;;;;;4.13;2.45;;;;;;;21.03;64.76;101635.41;4908710;29;20086;-70
2023/07/08 01:32:13;;;;;;;5.10;2.70;;;;;;;21.01;64.81;101634.78;4909134;29;20087;-68
2023/07/08 01:34:40;;;;;;;3.97;2.35;;;;;;;20.97;64.85;101630.00;4904741;29;20056;-69
2023/07/08 01:37:12;;;;;;;5.78;2.60;;;;;;;20.89;66.34;101633.66;4905220;29;20055;-68
2023/07/08 01:39:38;;;;;;;6.32;2.78;;;;;;;20.84;65.46;101633.44;4912572;29;20048;-67
2023/07/08 01:42:05;;;;;;;4.53;2.60;;;;;;;20.81;66.59;101625.81;4923182;29;20048;-70
2023/07/08 01:44:34;;;;;;;3.55;2.58;;;;;;;20.79;66.66;101628.66;4903313;29;20165;-69
2023/07/08 01:47:14;;;;;;;5.93;2.92;;;;;;;20.78;67.15;101623.53;4903039;29;20071;-68
2023/07/08 01:49:42;;;;;;;4.95;2.53;;;;;;;20.74;66.95;101628.44;4905808;29;21431;-70
2023/07/08 01:52:11;;;;;;;5.18;3.00;;;;;;;20.72;67.44;101620.63;4913921;29;20044;-67
2023/07/08 01:54:37;;;;;;;3.83;2.40;;;;;;;20.71;66.79;101623.47;4905997;29;20052;-69
2023/07/08 01:57:04;;;;;;;6.35;3.30;;;;;;;20.66;68.05;101626.75;4912652;29;20056;-69
2023/07/08 01:59:31;;;;;;;5.35;2.50;;;;;;;20.62;68.92;101617.50;4906332;29;20068;-68
2023/07/08 02:01:57;;;;;;;3.47;2.53;;;;;;;20.64;67.98;101620.78;4911079;29;20064;-67
2023/07/08 02:04:26;;;;;;;4.88;2.80;;;;;;;20.62;68.37;101608.66;4901953;29;20343;-69
2023/07/08 02:06:54;;;;;;;6.43;2.78;;;;;;;20.60;68.22;101610.69;4912126;29;20569;-68
2023/07/08 02:09:20;;;;;;;6.93;2.93;;;;;;;20.55;68.92;101598.72;4908805;29;20075;-68
2023/07/08 02:11:47;;;;;;;4.68;2.90;;;;;;;20.56;69.35;101599.53;4907699;28;20060;-74
2023/07/08 02:14:13;;;;;;;3.85;2.53;;;;;;;20.50;69.56;101589.66;4908461;29;20055;-74
2023/07/08 02:16:40;;;;;;;5.32;3.10;;;;;;;20.45;69.71;101592.09;4903607;29;20048;-74
2023/07/08 02:19:06;;;;;;;4.05;2.55;;;;;;;20.43;70.82;101591.47;4908765;29;20103;-75
2023/07/08 02:21:33;;;;;;;6.75;2.83;;;;;;;20.39;70.97;101598.22;4909860;29;20126;-73
2023/07/08 02:24:00;;;;;;;5.03;2.92;;;;;;;20.34;71.32;101590.78;4912719;29;20056;-68
2023/07/08 02:26:27;;;;;;;7.83;2.90;;;;;;;20.30;71.25;101587.66;4910803;29;20098;-70
2023/07/08 02:28:53;;;;;;;4.72;2.78;;;;;;;20.24;71.96;101591.09;4902212;29;20056;-67
2023/07/08 02:31:20;;;;;;;6.10;2.95;;;;;;;20.24;71.71;101590.28;4907389;29;20154;-68
2023/07/08 02:33:47;;;;;;;4.90;2.78;;;;;;;20.28;70.63;101589.69;4898202;29;20119;-67
2023/07/08 02:36:14;;;;;;;6.10;2.75;;;;;;;20.25;72.13;101587.44;4912900;29;20135;-68
2023/07/08 02:38:40;;;;;;;4.05;3.00;;;;;;;20.24;72.66;101588.44;4902371;29;20060;-68
2023/07/08 02:41:07;;;;;;;4.53;2.97;;;;;;;20.22;72.08;101586.97;4907778;29;20473;-68
2023/07/08 02:43:33;;;;;;;4.85;2.72;;;;;;;20.17;72.48;101589.38;4905448;29;20068;-67
2023/07/08 02:46:00;;;;;;;6.03;2.80;;;;;;;20.12;73.13;101585.47;4902178;29;20048;-68
2023/07/08 02:48:26;;;;;;;5.93;3.10;;;;;;;20.06;73.99;101585.41;4909346;29;20057;-68
2023/07/08 02:50:59;;;;;;;5.35;2.95;;;;;;;20.08;73.38;101586.03;4909347;29;20071;-67
2023/07/08 02:53:26;;;;;;;7.60;2.95;;;;;;;20.05;73.52;101583.75;4906958;29;20486;-68
2023/07/08 02:55:53;;;;;;;6.22;3.38;;;;;;;20.04;74.55;101579.47;4897507;28;20070;-71
2023/07/08 02:58:19;;;;;;;4.28;2.70;;;;;;;20.04;74.48;101580.28;4905283;29;20080;-69
2023/07/08 03:00:50;;;;;;;5.32;3.00;;;;;;;20.01;74.38;101575.31;4913206;29;20142;-67
2023/07/08 03:03:17;;;;;;;4.68;2.95;;;;;;;19.99;73.05;101579.19;4901150;29;20700;-69
2023/07/08 03:05:43;;;;;;;6.57;2.80;;;;;;;19.98;74.45;101586.34;4913884;29;20044;-68
2023/07/08 03:08:10;;;;;;;4.50;2.83;;;;;;;19.91;75.28;101580.94;4903757;29;20080;-68
2023/07/08 03:10:36;;;;;;;8.07;3.20;;;;;;;19.90;76.13;101578.50;4907491;29;20139;-68
2023/07/08 03:13:03;;;;;;;6.25;3.03;;;;;;;19.86;76.97;101578.06;4903839;29;20480;-68
2023/07/08 03:15:29;;;;;;;6.55;3.00;;;;;;;19.84;76.49;101574.75;4909393;29;20048;-68
2023/07/08 03:17:57;;;;;;;4.93;3.13;;;;;;;19.80;77.22;101572.63;4910446;29;20052;-67
2023/07/08 03:20:24;;;;;;;7.43;3.00;;;;;;;19.76;77.06;101577.53;4904596;29;20675;-67
2023/07/08 03:22:50;;;;;;;3.75;2.75;;;;;;;19.72;76.54;101562.97;4911552;29;20056;-68
2023/07/08 03:25:19;;;;;;;5.18;2.88;;;;;;;19.73;77.05;101565.41;4901806;29;20170;-68
2023/07/08 03:27:46;;;;;;;3.95;3.10;;;;;;;19.74;77.68;101575.06;4906688;29;20071;-68
2023/07/08 03:30:13;;;;;;;6.72;2.92;;;;;;;19.72;77.74;101579.75;4906603;29;20112;-68
2023/07/08 03:32:39;;;;;;;5.53;2.80;;;;;;;19.73;77.27;101585.91;4911265;29;20449;-69
2023/07/08 03:35:08;;;;;;;7.25;3.38;;;;;;;19.66;79.14;101588.47;4911064;29;20048;-67
2023/07/08 03:37:34;;;;;;;5.22;2.80;;;;;;;19.61;78.58;101585.53;4905712;29;20107;-71
2023/07/08 03:40:01;;;;;;;10.20;3.15;;;;;;;19.58;78.96;101585.06;4901289;29;20100;-68
2023/07/08 03:42:28;;;;;;;5.57;2.92;;;;;;;19.56;78.29;101582.59;4901602;29;20048;-68
2023/07/08 03:44:55;;;;;;;8.73;3.08;;;;;;;19.56;79.65;101595.91;4910065;29;20060;-68
2023/07/08 03:47:21;;;;;;;7.18;3.05;;;;;;;19.48;79.40;101582.72;4910604;29;20075;-68
2023/07/08 03:49:48;;;;;;;5.35;2.88;;;;;;;19.49;79.80;101585.19;4910336;29;20906;-69
2023/07/08 03:52:16;;;;;;;6.00;3.17;;;;;;;19.48;79.73;101585.38;4908327;29;20075;-72
2023/07/08 03:54:44;;;;;;;7.90;3.10;;;;;;;19.44;81.04;101584.09;4898930;29;20067;-68
2023/07/08 03:57:10;;;;;;;5.80;3.30;;;;;;;19.42;81.16;101586.13;4912184;29;20115;-69
2023/07/08 03:59:37;;;;;;;6.80;3.30;;;;;;;19.41;80.34;101582.66;4905183;29;20081;-68
2023/07/08 04:02:04;;;;;;;6.43;3.00;;;;;;;19.42;80.58;101584.28;4906934;29;20083;-68
2023/07/08 04:04:30;;;;;;;7.18;3.20;;;;;;;19.42;81.88;101583.47;4904869;29;20412;-69
2023/07/08 04:06:56;;;;;;;4.75;2.83;;;;;;;19.39;81.61;101584.66;4907544;29;20099;-67
2023/07/08 04:09:23;;;;;;;4.68;3.28;;;;;;;19.38;82.28;101588.31;4905770;29;20060;-69
2023/07/08 04:11:49;;;;;;;8.02;3.08;;;;;;;19.39;82.48;101589.16;4904630;29;20055;-72
2023/07/08 04:14:16;;;;;;;6.88;3.40;;;;;;;19.37;81.57;101594.66;4906732;29;20490;-68
2023/07/08 04:16:57;;;;;;;4.15;2.60;;;;;;;19.38;82.49;101593.63;4904750;29;20135;-68
2023/07/08 04:19:26;;;;;;;6.03;3.33;;;;;;;19.36;82.49;101591.16;4904515;29;20727;-68
2023/07/08 04:21:53;;;;;;;8.93;3.10;;;;;;;19.36;81.88;101583.19;4899970;29;20056;-71
2023/07/08 04:24:19;;;;;;;5.68;3.00;;;;;;;19.36;82.99;101587.69;4924416;29;20075;-68
2023/07/08 04:26:47;;;;;;;3.78;2.90;;;;;;;19.39;82.96;101590.00;4914095;29;20533;-68
2023/07/08 04:29:18;;;;;;;4.53;2.72;;;;;;;19.41;82.39;101592.47;4908641;29;20111;-69
2023/07/08 04:31:44;;;;;;;6.95;3.38;;;;;;;19.39;83.58;101597.16;4913167;29;20067;-68
2023/07/08 04:34:11;;;;;;;4.22;2.80;;;;;;;19.39;82.27;101605.13;4904908;29;20109;-68
2023/07/08 04:36:38;;;;;;;5.57;3.28;;;;;;;19.41;83.99;101603.09;4908031;29;20123;-68
2023/07/08 04:39:06;;;;;;;5.00;2.95;;;;;;;19.39;85.13;101600.63;4905791;29;20056;-72
2023/07/08 04:41:33;;;;;;;4.50;2.92;;;;;;;19.38;83.58;101600.81;4917256;29;20056;-68
2023/07/08 04:44:02;;;;;;;6.10;3.10;;;;;;;19.40;83.92;101594.28;4911978;29;20087;-72
2023/07/08 04:46:44;;;;;;;5.25;2.97;;;;;;;19.42;85.29;101596.75;4906052;29;20052;-68
2023/07/08 04:49:13;;;;;;;4.05;2.67;;;;;;;19.41;83.96;101593.28;4906514;29;20048;-69
2023/07/08 04:51:40;;;;;;;6.55;2.90;;;;;;;19.45;83.95;101596.41;4908668;29;20140;-70
2023/07/08 04:54:07;;;;;;;4.97;3.20;;;;;;;19.47;85.64;101597.03;4912744;29;20052;-68
2023/07/08 04:56:46;;;;;;;4.88;2.88;;;;;;;19.51;85.52;101599.13;4907011;29;20186;-69
2023/07/08 04:59:16;;;;;;;4.07;2.70;;;;;;;19.52;85.71;101599.94;4914250;29;20143;-69
2023/07/08 05:01:43;;;;;;;6.28;3.05;;;;;;;19.52;86.60;101599.94;4906958;29;20055;-69
2023/07/08 05:04:16;;;;;;;5.55;3.13;;;;;;;19.53;85.46;101594.44;4910033;29;20546;-68
2023/07/08 05:06:43;;;;;;;5.25;3.25;;;;;;;19.53;87.05;101601.63;4910650;29;20107;-68
2023/07/08 05:09:10;;;;;;;4.45;2.95;;;;;;;19.54;86.97;101592.59;4912793;29;20075;-70
2023/07/08 05:11:38;;;;;;;4.93;2.83;;;;;;;19.57;85.91;101594.91;4915765;29;20060;-68
2023/07/08 05:14:05;;;;;;;5.15;3.40;;;;;;;19.54;87.48;101592.59;4906637;29;20063;-70
2023/07/08 05:16:34;;;;;;;5.13;3.00;;;;;;;19.53;86.15;101597.09;4909721;29;20619;-67
2023/07/08 05:19:01;;;;;;;12.40;3.20;;;;;;;19.54;85.72;101596.09;4905633;29;20135;-68
2023/07/08 05:21:33;;;;;;;5.70;3.05;;;;;;;19.53;84.76;101586.47;4915185;29;20453;-69
2023/07/08 05:24:01;;;;;;;4.93;3.03;;;;;;;19.57;85.54;101589.59;4906896;29;20047;-70
2023/07/08 05:26:27;;;;;;;;;;;;;;;19.59;85.13;101592.06;4909312;29;20556;-69
2023/07/08 05:28:54;;;;;;;6.05;3.20;;;;;;;19.62;84.09;101586.34;4913242;29;20686;-70
2023/07/08 05:31:20;;;;;;;5.25;3.40;;;;;;;19.59;85.02;101581.41;4901756;29;20107;-68
2023/07/08 05:33:52;;;;;;;5.65;3.42;;;;;;;19.64;84.55;101592.31;4916549;29;20052;-68
2023/07/08 05:36:18;;;;;;;4.82;2.83;;;;;;;19.64;84.22;101577.19;4907455;29;20059;-69
2023/07/08 05:38:45;;;;;;;5.20;3.13;;;;;;;19.67;84.61;101571.47;4903536;29;20068;-68
2023/07/08 05:41:12;;;;;;;5.25;3.30;;;;;;;19.73;83.76;101575.25;4902273;29;20391;-69
2023/07/08 05:43:39;;;;;;;4.78;2.80;;;;;;;19.75;82.20;101567.91;4909576;29;20068;-69
2023/07/08 05:46:05;;;;;;;5.13;3.20;;;;;;;19.78;84.47;101577.34;4907715;29;20143;-69
2023/07/08 05:48:38;;;;;;;5.28;2.92;;;;;;;19.81;83.68;101575.13;4902972;29;20067;-69
2023/07/08 05:51:05;;;;;;;4.28;3.10;;;;;;;19.87;83.07;101574.38;4913979;29;20198;-71
2023/07/08 05:53:31;;;;;;;4.93;2.95;;;;;;;19.90;83.01;101575.84;4917486;29;20180;-67
2023/07/08 05:55:57;;;;;;;4.70;3.28;;;;;;;19.98;82.14;101577.56;4911859;29;20059;-70
2023/07/08 05:58:24;;;;;;;5.90;2.97;;;;;;;19.99;82.42;101580.00;4904071;29;20435;-68
2023/07/08 06:00:56;;;;;;;;;;;;;;;20.09;80.37;101585.00;4909051;29;20084;-68
2023/07/08 06:03:23;;;;;;;8.60;3.42;;;;;;;20.13;81.10;101595.13;4919932;29;19926;-68
2023/07/08 06:05:50;;;;;;;6.88;3.17;;;;;;;20.14;80.37;101590.59;4906558;29;20059;-71
2023/07/08 06:08:17;;;;;;;5.13;3.55;;;;;;;20.15;81.59;101589.59;4913104;29;20076;-68
2023/07/08 06:10:47;;;;;;;6.88;3.45;;;;;;;20.23;81.09;101609.94;4906293;29;20139;-68
2023/07/08 06:13:13;;;;;;;10.68;3.28;;;;;;;20.21;80.04;101599.50;4908981;29;20099;-68
2023/07/08 06:15:41;;;;;;;4.68;3.25;;;;;;;20.33;80.95;101599.78;4901129;29;20060;-71
2023/07/08 06:18:08;;;;;;;6.50;3.22;;;;;;;20.41;79.40;101601.50;4912292;29;20048;-68
2023/07/08 06:20:35;;;;;;;5.10;2.80;;;;;;;20.47;77.66;101598.06;4908372;29;20501;-70
2023/07/08 06:23:01;;;;;;;8.15;3.40;;;;;;;20.49;78.38;101588.84;4905342;29;20499;-68
2023/07/08 06:25:28;;;;;;;5.78;3.35;;;;;;;20.49;79.34;101590.69;4905139;29;20048;-68
2023/07/08 06:27:54;;;;;;;6.35;3.05;;;;;;;20.51;78.84;101597.47;4903429;29;20114;-69
2023/07/08 06:30:21;;;;;;;6.82;3.00;;;;;;;20.51;79.27;101596.66;4911208;29;20048;-68
2023/07/08 06:32:47;;;;;;;6.25;3.30;;;;;;;20.49;80.03;101601.34;4906269;29;20476;-69
2023/07/08 06:35:14;;;;;;;7.55;3.42;;;;;;;20.51;80.23;101599.31;4908142;29;20056;-67
2023/07/08 06:37:41;;;;;;;6.45;3.30;;;;;;;20.52;82.36;101591.13;4912299;29;20059;-67
2023/07/08 06:40:08;;;;;;;5.18;3.30;;;;;;;20.58;82.61;101600.22;4900170;29;20358;-67
2023/07/08 06:42:34;;;;;;;6.85;3.30;;;;;;;20.61;83.42;101597.16;4911244;29;20111;-68
2023/07/08 06:45:02;;;;;;;8.80;3.20;;;;;;;20.72;81.74;101595.81;4901438;29;20060;-68
2023/07/08 06:47:29;;;;;;;4.28;3.03;;;;;;;20.82;78.02;101595.47;4911771;29;20060;-68
2023/07/08 06:49:55;;;;;;;5.00;3.30;;;;;;;20.86;80.70;101589.53;4905507;29;20050;-68
2023/07/08 06:52:25;;;;;;;7.65;2.80;;;;;;;20.94;79.93;101588.56;4908184;29;20060;-69
2023/07/08 06:54:51;;;;;;;5.43;2.95;;;;;;;20.99;81.25;101583.44;4906928;29;20441;-68
2023/07/08 06:57:17;;;;;;;5.00;3.08;;;;;;;21.11;76.15;101586.38;4911213;29;20134;-68
2023/07/08 06:59:44;;;;;;;7.57;3.13;;;;;;;21.16;79.35;101591.16;4912089;29;20139;-68
2023/07/08 07:02:10;;;;;;;6.13;3.00;;;;;;;21.20;80.13;101587.88;4904300;29;20075;-67
2023/07/08 07:04:37;;;;;;;4.57;2.92;;;;;;;21.25;78.37;101582.78;4910421;29;20079;-68
2023/07/08 07:07:03;;;;;;;4.47;3.13;;;;;;;21.29;82.89;101581.34;4902321;29;20056;-68
2023/07/08 07:09:31;;;;;;;5.43;2.80;;;;;;;21.36;78.54;101581.38;4899647;29;20055;-68
2023/07/08 07:11:58;;;;;;;5.32;3.30;;;;;;;21.42;78.49;101593.09;4912860;29;20428;-67
2023/07/08 07:14:24;;;;;;;6.30;3.20;;;;;;;21.50;77.79;101592.94;4906049;29;20376;-69
2023/07/08 07:16:53;;;;;;;4.18;3.03;;;;;;;21.60;76.13;101596.09;4910421;29;20569;-67
2023/07/08 07:19:34;;;;;;;7.07;3.30;;;;;;;21.63;78.46;101587.66;4905370;29;20115;-67
2023/07/08 07:22:01;;;;;;;5.43;3.15;;;;;;;21.73;79.49;101589.94;4895720;29;20206;-66
2023/07/08 07:24:27;;;;;;;7.10;3.45;;;;;;;21.80;77.24;101590.78;4900261;29;20084;-69
2023/07/08 07:26:54;;;;;;;6.13;3.22;;;;;;;21.85;78.48;101593.66;4910251;29;20107;-67
2023/07/08 07:29:23;;;;;;;6.07;3.15;;;;;;;21.89;76.83;101581.56;4911003;29;20060;-69
2023/07/08 07:31:51;;;;;;;11.02;3.60;;;;;;;22.01;75.09;101586.28;4903637;29;20054;-69
2023/07/08 07:34:18;;;;;;;6.68;3.55;;;;;;;22.08;76.12;101589.81;4907332;29;20051;-67
2023/07/08 07:36:45;;;;;;;4.60;3.10;;;;;;;22.20;74.14;101587.34;4900988;29;20044;-67
2023/07/08 07:39:11;;;;;;;8.48;3.42;;;;;;;22.23;77.61;101586.94;4909022;29;20052;-67
2023/07/08 07:41:38;;;;;;;4.55;3.03;;;;;;;22.29;75.23;101586.16;4903107;29;20169;-69
2023/07/08 07:44:04;;;;;;;7.97;3.63;;;;;;;22.34;77.25;101583.66;4910962;29;20509;-70
2023/07/08 07:46:31;;;;;;;8.50;3.92;;;;;;;22.42;78.30;101579.97;4910921;29;20483;-69
2023/07/08 07:48:59;;;;;;;6.35;3.55;;;;;;;22.50;78.61;101572.56;4901027;29;20138;-68
2023/07/08 07:51:25;;;;;;;5.47;3.08;;;;;;;22.59;75.26;101572.34;4905120;29;20123;-68
2023/07/08 07:53:52;;;;;;;6.90;3.25;;;;;;;22.66;78.10;101570.50;4924960;29;20556;-68
2023/07/08 07:56:19;;;;;;;4.40;3.00;;;;;;;22.74;74.65;101567.59;4925737;29;20413;-68
2023/07/08 07:58:45;;;;;;;8.48;3.58;;;;;;;22.81;75.63;101573.72;4904544;29;20098;-69
2023/07/08 08:01:13;;;;;;;4.97;3.28;;;;;;;22.90;75.15;101569.00;4909589;29;20048;-69
2023/07/08 08:03:39;;;;;;;8.10;3.53;;;;;;;22.96;75.69;101568.16;4911758;29;20056;-68
2023/07/08 08:06:06;;;;;;;5.45;3.38;;;;;;;23.08;76.37;101569.16;4910079;29;20123;-68
2023/07/08 08:08:32;;;;;;;9.00;3.70;;;;;;;23.16;76.99;101567.28;4913320;29;20072;-68
2023/07/08 08:11:02;;;;;;;6.93;3.10;;;;;;;23.26;74.63;101563.09;4907866;29;20687;-68
2023/07/08 08:13:29;;;;;;;9.10;4.20;;;;;;;23.34;76.14;101561.22;4911366;29;20159;-68
2023/07/08 08:15:59;;;;;;;8.95;3.70;;;;;;;23.42;75.65;101560.97;4905701;29;20074;-69
2023/07/08 08:18:26;;;;;;;7.50;3.30;;;;;;;23.51;75.23;101566.94;4911162;29;20071;-68
2023/07/08 08:20:53;;;;;;;5.63;3.45;;;;;;;23.62;76.44;101563.53;4912203;29;20520;-72
2023/07/08 08:23:20;;;;;;;6.30;3.30;;;;;;;23.66;74.33;101564.78;4914284;29;20054;-70
2023/07/08 08:25:46;;;;;;;5.72;3.53;;;;;;;23.85;71.06;101571.06;4911506;29;20048;-70
2023/07/08 08:28:13;;;;;;;5.05;3.33;;;;;;;23.93;71.54;101570.78;4906954;29;20048;-69
2023/07/08 08:30:39;;;;;;;7.00;3.83;;;;;;;24.01;69.98;101570.53;4908989;29;20143;-70
2023/07/08 08:33:06;;;;;;;5.32;3.42;;;;;;;24.23;68.14;101576.34;4905747;28;20047;-71
2023/07/08 08:35:33;;;;;;;7.00;3.53;;;;;;;24.40;67.53;101573.91;4910557;29;20053;-68
2023/07/08 08:37:59;;;;;;;6.78;3.70;;;;;;;24.70;67.60;101573.25;4911397;29;20075;-69
2023/07/08 08:40:26;;;;;;;7.75;3.55;;;;;;;25.02;65.48;101589.22;4911147;29;20146;-67
2023/07/08 08:42:59;;;;;;;9.20;3.88;;;;;;;25.44;62.09;101587.50;4912912;29;20143;-70
2023/07/08 08:45:28;;;;;;;6.78;4.00;;;;;;;25.84;61.29;101592.28;4902529;29;20084;-68
2023/07/08 08:48:00;;;;;;;6.40;3.65;;;;;;;26.24;59.10;101602.44;4912637;29;20091;-68
2023/07/08 08:50:47;;;;;;;11.55;5.05;;;;;;;26.75;58.00;101607.41;4907653;29;20051;-70
2023/07/08 08:53:17;;;;;;;10.60;4.40;;;;;;;27.10;58.24;101593.06;4911488;29;20071;-67
2023/07/08 08:55:50;;;;;;;5.93;3.88;;;;;;;27.42;56.84;101602.34;4908043;29;20718;-67
2023/07/08 08:58:48;;;;;;;6.15;3.95;;;;;;;27.84;56.80;101592.31;4908522;29;20052;-68
2023/07/08 09:01:16;;;;;;;7.78;3.67;;;;;;;28.16;54.92;101595.28;4903703;29;20072;-68
2023/07/08 09:03:50;;;;;;;8.18;3.95;;;;;;;28.47;53.78;101595.78;4912482;29;20056;-67
2023/07/08 09:06:23;;;;;;;8.32;4.20;;;;;;;28.74;51.11;101587.81;4910357;29;20437;-67
2023/07/08 09:08:52;;;;;;;6.68;3.80;;;;;;;28.97;51.44;101595.69;4915921;29;20107;-70
2023/07/08 09:11:37;;;;;;;6.50;4.15;;;;;;;29.23;50.29;101592.50;4902005;29;20147;-68
2023/07/08 09:14:12;;;;;;;8.43;4.60;;;;;;;29.53;48.93;101592.00;4901329;29;20079;-68
2023/07/08 09:16:45;;;;;;;7.60;4.57;;;;;;;29.79;48.41;101601.19;4911744;29;20139;-67
2023/07/08 09:19:22;;;;;;;7.88;4.40;;;;;;;30.00;47.74;101590.56;4903575;29;20524;-67
2023/07/08 09:22:02;;;;;;;8.80;4.30;;;;;;;30.32;49.78;101602.19;4907788;29;20057;-68
2023/07/08 09:24:36;;;;;;;5.70;4.00;;;;;;;30.52;48.36;101587.97;4907188;29;20048;-70
2023/07/08 09:27:03;;;;;;;6.65;4.70;;;;;;;30.74;47.25;101587.81;4903803;29;20084;-68
2023/07/08 09:29:32;;;;;;;11.05;4.68;;;;;;;30.91;46.94;101584.09;4905113;29;20052;-69
2023/07/08 09:32:11;;;;;;;8.93;4.45;;;;;;;31.07;47.57;101583.09;4911250;29;20099;-68
2023/07/08 09:34:45;;;;;;;6.95;4.80;;;;;;;31.26;47.02;101577.97;4908756;29;20173;-67
2023/07/08 09:37:22;;;;;;;6.78;4.63;;;;;;;31.46;46.89;101587.28;4903832;29;20079;-68
2023/07/08 09:39:48;;;;;;;6.50;4.88;;;;;;;31.47;45.74;101573.44;4911149;29;20083;-68
2023/07/08 09:42:15;;;;;;;8.95;4.70;;;;;;;31.62;45.77;101577.25;4903761;29;20052;-69
2023/07/08 09:44:44;;;;;;;7.22;4.75;;;;;;;31.80;45.28;101576.75;4913842;29;20469;-67
2023/07/08 09:47:23;;;;;;;9.23;4.80;;;;;;;31.99;43.42;101573.47;4907119;29;20462;-69
2023/07/08 09:49:51;;;;;;;7.72;4.85;;;;;;;32.15;44.37;101572.41;4909531;29;20056;-68
2023/07/08 09:52:18;;;;;;;7.10;4.15;;;;;;;32.29;45.35;101565.31;4907996;29;20080;-68
2023/07/08 09:54:45;;;;;;;7.22;4.90;;;;;;;32.43;44.91;101567.47;4906065;29;20948;-67
2023/07/08 09:57:35;;;;;;;6.93;4.45;;;;;;;32.60;43.25;101570.69;4912135;29;20466;-67
2023/07/08 10:00:08;;;;;;;6.57;4.70;;;;;;;32.74;43.25;101564.69;4910310;29;20043;-68
2023/07/08 10:02:40;;;;;;;8.98;4.88;;;;;;;32.85;41.79;101572.50;4910711;29;20056;-67
2023/07/08 10:05:14;;;;;;;9.68;5.82;;;;;;;33.06;42.36;101572.38;4903996;28;20087;-69
2023/07/08 10:07:40;;;;;;;9.60;5.13;;;;;;;33.23;42.27;101563.91;4902057;29;20216;-69
2023/07/08 10:10:14;;;;;;;10.50;4.55;;;;;;;33.35;40.81;101575.25;4907356;29;20115;-68
2023/07/08 10:12:46;;;;;;;8.77;5.10;;;;;;;33.43;40.94;101574.63;4908141;29;20513;-68
2023/07/08 10:15:32;;;;;;;8.15;5.05;;;;;;;33.65;41.99;101578.84;4910513;29;20048;-68
2023/07/08 10:17:59;;;;;;;9.93;4.75;;;;;;;33.53;41.03;101591.97;4910728;29;20060;-67
2023/07/08 10:20:35;;;;;;;9.10;6.03;;;;;;;33.67;41.06;101582.91;4904144;29;20522;-68
2023/07/08 10:23:12;;;;;;;8.15;5.35;;;;;;;33.88;40.35;101577.31;4899853;29;20130;-68
2023/07/08 10:26:05;;;;;;;9.10;5.90;;;;;;;34.01;39.45;101578.53;4911290;29;20048;-69
2023/07/08 10:28:44;;;;;;;7.50;4.60;;;;;;;34.21;40.38;101575.66;4904038;29;20056;-68
2023/07/08 10:31:33;;;;;;;7.70;5.68;;;;;;;34.45;40.80;101574.88;4911754;29;20051;-68
2023/07/08 10:34:26;;;;;;;7.10;5.28;;;;;;;34.49;40.22;101573.19;4902110;29;20048;-67
2023/07/08 10:37:15;;;;;;;9.35;5.47;;;;;;;34.69;39.74;101574.88;4905963;29;20048;-67
2023/07/08 10:40:00;;;;;;;8.73;5.38;;;;;;;34.83;40.19;101581.25;4895396;29;20111;-68
2023/07/08 10:42:48;;;;;;;8.60;5.65;;;;;;;34.92;40.19;101586.84;4906448;29;20107;-69
2023/07/08 10:45:23;;;;;;;7.95;5.10;;;;;;;34.83;39.24;101580.41;4902280;29;20048;-68
2023/07/08 10:48:14;;;;;;;9.75;5.45;;;;;;;34.70;39.30;101575.72;4904408;29;20378;-68
2023/07/08 10:50:54;;;;;;;8.00;5.15;;;;;;;34.90;39.59;101582.81;4902258;29;20091;-67
2023/07/08 10:53:36;;;;;;;8.05;5.32;;;;;;;35.03;38.24;101577.44;4912041;29;20062;-67
2023/07/08 10:56:18;;;;;;;8.40;5.45;;;;;;;35.04;38.44;101573.59;4904468;29;20894;-66
2023/07/08 10:59:06;;;;;;;8.15;5.10;;;;;;;35.20;40.25;101567.97;4911178;29;20059;-67
2023/07/08 11:01:58;;;;;;;9.85;5.63;;;;;;;35.39;38.70;101559.78;4899467;29;20073;-67
2023/07/08 11:04:44;;;;;;;7.72;5.70;;;;;;;35.52;38.22;101555.47;4907494;29;20060;-67
2023/07/08 11:07:25;;;;;;;8.95;5.30;;;;;;;35.61;38.59;101551.75;4905492;29;20504;-68
2023/07/08 11:09:57;;;;;;;9.55;5.40;;;;;;;35.73;38.69;101554.03;4908934;29;20063;-67
2023/07/08 11:12:36;;;;;;;7.93;5.28;;;;;;;35.88;38.10;101554.91;4910935;29;20461;-68
2023/07/08 11:15:25;;;;;;;8.32;5.93;;;;;;;35.97;38.99;101548.44;4899551;29;20115;-67
2023/07/08 11:18:06;;;;;;;8.93;5.68;;;;;;;35.94;37.32;101549.03;4920049;29;20056;-69
2023/07/08 11:20:51;;;;;;;9.20;5.43;;;;;;;36.11;38.83;101544.91;4905883;29;20142;-68
2023/07/08 11:23:30;;;;;;;10.05;5.93;;;;;;;36.21;38.13;101537.38;4911587;29;20056;-67
2023/07/08 11:26:15;;;;;;;8.23;5.60;;;;;;;36.43;38.33;101535.84;4906471;29;20107;-69
2023/07/08 11:28:41;;;;;;;8.30;5.57;;;;;;;36.50;38.73;101547.19;4904578;29;20592;-67
2023/07/08 11:31:09;;;;;;;8.70;5.55;;;;;;;36.63;38.00;101545.53;4901065;29;20135;-67
2023/07/08 11:33:37;;;;;;;10.13;6.05;;;;;;;36.73;37.69;101552.72;4908627;29;20052;-68
2023/07/08 11:36:05;;;;;;;7.60;5.65;;;;;;;36.75;38.62;101545.03;4905817;29;20066;-65
2023/07/08 11:38:34;;;;;;;10.20;5.72;;;;;;;36.74;37.42;101546.97;4903141;29;20143;-66